Archival Weather

Fukuoka

Fukuoka, Japan (RJFF)

Report from: Tuesday, August 16, 2022 12:30 PM JST
Current time: Sunday, November 27, 2022 5:24 PM JST

Current weather
Weather history
Weather forecast

Present weatherRain showers, light thunderstorm with rain
Temperature29.0°C (84.2°F)
Heat index35.6°C (96.1°F)
Dew point26.0°C (78.8°F)
Winds 7 kts (3.6 m/s, 8.1 mph) Vrb
Wind gusts 25 kts (12.9 m/s, 28.8 mph)
Winds variableWinds variable from South-Southeast (150°) to Southwest (220°)
Visibility6.2 mi. (10 km)
Clouds Few clouds 1,000 ft. (305 m)
Few clouds with towering cumulus 2,500 ft. (762 m)
Scattered clouds 3,500 ft. (1,067 m)
Ceiling: Broken clouds 4,500 ft. (1,372 m)
Altimeter29.74 in.Hg (1007 mB)
Relative humidity84 %
Density altitude2,266 ft. (691 m)
Flight conditions Visual Meteorological Conditions
Raw dataRJFF 160330Z 17007KT 150V220 9999 R16/2000N SHRA FEW010 FEW025TCU SCT035 BKN045 29/26 Q1007 TEMPO 18015G25KT 4000 -TSRA BR
An error has occurred. This application may no longer respond until reloaded. Reload 🗙